Time;durP1;ratioP1;P1;durP2;ratioP2;P2;SDS_P1;SDS_P2;PMS_P1;PMS_P2;Temp;Humidity;BMP_temperature;BMP_pressure;BME280_temperature;BME280_humidity;BME280_pressure;Samples;Min_cycle;Max_cycle;Signal;HPM_P1;HPM_P2
2022/10/27 00:00:40;;;;;;;11.43;4.93;;;10.50;99.90;;;;;;5031067;28;20088;-48
2022/10/27 00:03:09;;;;;;;11.93;4.68;;;10.50;99.90;;;;;;5031046;28;20041;-47
2022/10/27 00:05:42;;;;;;;14.15;4.88;;;10.50;99.90;;;;;;5030673;28;20080;-48
2022/10/27 00:08:12;;;;;;;;;;;10.50;99.90;;;;;;5031619;28;20065;-48
2022/10/27 00:10:41;;;;;;;8.77;5.05;;;10.50;99.90;;;;;;5034421;28;19963;-47
2022/10/27 00:13:08;;;;;;;8.50;4.22;;;10.50;99.90;;;;;;5030606;28;20120;-49
2022/10/27 00:15:34;;;;;;;11.07;4.70;;;10.50;99.90;;;;;;5030869;28;20049;-49
2022/10/27 00:18:10;;;;;;;8.00;4.45;;;10.60;99.90;;;;;;5009927;28;20046;-47
2022/10/27 00:20:37;;;;;;;17.80;5.53;;;10.60;99.90;;;;;;5024241;28;20095;-50
2022/10/27 00:23:04;;;;;;;13.27;5.03;;;10.60;99.90;;;;;;5031487;28;20045;-48
2022/10/27 00:25:31;;;;;;;12.65;4.38;;;10.60;99.90;;;;;;5065692;22;20131;-49
2022/10/27 00:27:57;;;;;;;11.38;4.97;;;10.50;99.90;;;;;;5070599;28;20119;-52
2022/10/27 00:30:24;;;;;;;14.65;4.93;;;10.50;99.90;;;;;;5053570;28;20049;-49
2022/10/27 00:32:52;;;;;;;11.10;4.35;;;10.40;99.90;;;;;;5070287;28;20071;-49
2022/10/27 00:35:19;;;;;;;9.70;4.28;;;10.40;99.90;;;;;;5083960;28;20044;-50
2022/10/27 00:37:46;;;;;;;14.82;4.82;;;10.40;99.90;;;;;;5085503;28;20071;-49
2022/10/27 00:40:13;;;;;;;12.60;5.53;;;10.30;99.90;;;;;;5091183;28;20085;-49
2022/10/27 00:42:40;;;;;;;10.02;4.35;;;10.30;99.90;;;;;;5090459;28;20509;-51
2022/10/27 00:45:07;;;;;;;9.23;4.88;;;10.20;99.90;;;;;;5090941;28;20067;-52
2022/10/27 00:47:36;;;;;;;12.35;3.88;;;10.20;99.90;;;;;;5090856;28;20048;-49
2022/10/27 00:50:24;;;;;;;11.38;2.42;;;10.10;99.90;;;;;;5086761;28;20128;-49
2022/10/27 00:52:55;;;;;;;9.95;3.88;;;9.90;99.90;;;;;;5067422;28;20390;-49
2022/10/27 00:55:25;;;;;;;10.32;4.43;;;9.90;99.90;;;;;;5089594;28;20067;-49
2022/10/27 00:57:55;;;;;;;9.82;4.90;;;9.80;99.90;;;;;;5091348;28;20048;-49
2022/10/27 01:00:22;;;;;;;13.07;4.05;;;9.90;99.90;;;;;;5087575;28;20032;-50
2022/10/27 01:02:49;;;;;;;15.98;5.53;;;9.80;99.90;;;;;;5085194;28;20040;-51
2022/10/27 01:05:26;;;;;;;8.73;5.05;;;9.90;99.90;;;;;;5090450;28;20052;-49
2022/10/27 01:07:57;;;;;;;14.45;4.47;;;10.00;99.90;;;;;;5091067;28;20044;-53
2022/10/27 01:10:25;;;;;;;9.90;4.22;;;10.10;99.90;;;;;;5083290;28;20037;-51
2022/10/27 01:12:54;;;;;;;8.35;4.47;;;10.10;99.90;;;;;;5089188;28;20485;-51
2022/10/27 01:15:28;;;;;;;7.82;4.07;;;10.10;99.90;;;;;;5090655;28;20454;-51
2022/10/27 01:18:16;;;;;;;6.72;3.70;;;10.10;99.90;;;;;;5090730;28;20699;-49
2022/10/27 01:21:14;;;;;;;8.07;3.88;;;10.00;99.90;;;;;;5073149;28;20048;-53
2022/10/27 01:24:22;;;;;;;10.80;3.58;;;9.90;99.90;;;;;;5083580;28;20064;-53
2022/10/27 01:27:02;;;;;;;9.27;4.13;;;9.90;99.90;;;;;;5093641;28;20040;-51
2022/10/27 01:29:54;;;;;;;13.43;3.92;;;9.80;99.90;;;;;;5094079;28;20036;-53
2022/10/27 01:32:43;;;;;;;7.35;3.92;;;9.70;99.90;;;;;;5094844;28;20078;-51
2022/10/27 01:35:47;;;;;;;7.63;3.97;;;9.60;99.90;;;;;;5093993;28;20036;-50
2022/10/27 01:38:26;;;;;;;13.93;4.30;;;9.60;99.90;;;;;;5087191;28;20045;-52
2022/10/27 01:41:06;;;;;;;12.63;4.50;;;9.60;99.90;;;;;;5094862;28;20072;-51
2022/10/27 01:43:34;;;;;;;7.75;4.43;;;9.60;99.90;;;;;;5094102;28;20044;-50
2022/10/27 01:46:03;;;;;;;19.38;4.50;;;9.60;99.90;;;;;;5094708;28;20063;-51
2022/10/27 01:48:35;;;;;;;7.78;4.35;;;9.60;99.90;;;;;;5089462;28;20040;-51
2022/10/27 01:51:02;;;;;;;9.27;4.40;;;9.60;99.90;;;;;;5088054;28;20094;-52
2022/10/27 01:53:32;;;;;;;9.48;4.35;;;9.60;99.90;;;;;;5093789;28;20074;-54
2022/10/27 01:56:11;;;;;;;12.20;4.20;;;9.60;99.90;;;;;;5089249;28;20463;-52
2022/10/27 01:59:02;;;;;;;11.27;4.40;;;9.60;99.90;;;;;;5087163;28;20113;-51
2022/10/27 02:01:57;;;;;;;8.50;4.40;;;9.50;99.90;;;;;;5093748;28;20070;-53
2022/10/27 02:04:48;;;;;;;10.98;4.40;;;9.50;99.90;;;;;;5091623;28;20052;-52
2022/10/27 02:07:41;;;;;;;10.43;5.20;;;9.50;99.90;;;;;;5091788;28;20102;-50
2022/10/27 02:10:17;;;;;;;12.38;4.43;;;9.40;99.90;;;;;;5087770;28;20044;-50
2022/10/27 02:12:45;;;;;;;13.18;4.65;;;9.50;99.90;;;;;;5094191;28;20044;-51
2022/10/27 02:15:39;;;;;;;9.50;4.40;;;9.50;99.90;;;;;;5090743;28;20052;-50
2022/10/27 02:18:21;;;;;;;8.65;4.50;;;9.50;99.90;;;;;;5090438;28;20040;-51
2022/10/27 02:20:52;;;;;;;10.20;4.68;;;9.50;99.90;;;;;;5093757;28;20549;-52
2022/10/27 02:23:20;;;;;;;14.50;4.97;;;9.60;99.90;;;;;;5088215;28;20582;-50
2022/10/27 02:25:56;;;;;;;10.13;4.93;;;9.60;99.90;;;;;;5093204;28;20090;-52
2022/10/27 02:28:45;;;;;;;9.00;4.50;;;9.60;99.90;;;;;;5091697;28;20497;-51
2022/10/27 02:31:13;;;;;;;;;;;9.70;99.90;;;;;;5094491;28;20071;-50
2022/10/27 02:33:40;;;;;;;7.93;2.83;;;9.70;99.90;;;;;;5093136;28;19970;-51
2022/10/27 02:36:07;;;;;;;9.57;4.55;;;9.70;99.90;;;;;;5093804;28;20067;-50
2022/10/27 02:38:34;;;;;;;9.25;4.85;;;9.70;99.90;;;;;;5092790;28;20566;-50
2022/10/27 02:41:00;;;;;;;13.27;4.68;;;9.70;99.90;;;;;;5093875;28;20048;-51
2022/10/27 02:43:27;;;;;;;16.50;4.75;;;9.70;99.90;;;;;;5093515;28;20052;-51
2022/10/27 02:45:54;;;;;;;13.15;4.47;;;9.70;99.90;;;;;;5093052;28;20071;-50
2022/10/27 02:48:20;;;;;;;10.02;4.95;;;9.60;99.90;;;;;;5093778;28;20064;-50
2022/10/27 02:50:47;;;;;;;8.60;4.13;;;9.60;99.90;;;;;;5093801;28;20405;-50
2022/10/27 02:53:14;;;;;;;10.65;4.72;;;9.60;99.90;;;;;;5074119;28;20036;-50
2022/10/27 02:55:40;;;;;;;8.55;3.60;;;9.60;99.90;;;;;;5093028;28;20044;-52
2022/10/27 02:58:07;;;;;;;6.25;4.05;;;9.60;99.90;;;;;;5092877;28;20485;-49
2022/10/27 03:00:34;;;;;;;10.10;4.95;;;9.70;99.90;;;;;;5093476;28;20056;-50
2022/10/27 03:03:01;;;;;;;8.93;3.90;;;9.60;99.90;;;;;;5092743;28;20528;-50
2022/10/27 03:05:28;;;;;;;10.75;4.38;;;9.60;99.90;;;;;;5093066;28;20071;-53
2022/10/27 03:07:55;;;;;;;8.00;4.13;;;9.60;99.90;;;;;;5093542;28;20090;-50
2022/10/27 03:10:21;;;;;;;8.02;4.43;;;9.60;99.90;;;;;;5087412;28;20052;-52
2022/10/27 03:12:48;;;;;;;7.75;4.50;;;9.60;99.90;;;;;;5093169;28;20477;-53
2022/10/27 03:15:16;;;;;;;;;;;9.50;99.90;;;;;;5074828;28;20047;-51
2022/10/27 03:17:46;;;;;;;10.95;4.20;;;9.50;99.90;;;;;;5091287;28;19955;-50
2022/10/27 03:20:14;;;;;;;11.90;4.68;;;9.50;99.90;;;;;;5090358;28;20048;-52
2022/10/27 03:22:41;;;;;;;9.55;4.50;;;9.50;99.90;;;;;;5086012;28;20052;-52
2022/10/27 03:25:10;;;;;;;7.70;3.95;;;9.60;99.90;;;;;;5091674;28;20738;-52
2022/10/27 03:27:42;;;;;;;12.48;4.50;;;9.50;99.90;;;;;;5091714;28;20040;-51
2022/10/27 03:30:11;;;;;;;10.60;4.68;;;9.50;99.90;;;;;;5089343;28;20065;-51
2022/10/27 03:32:38;;;;;;;13.07;4.20;;;9.50;99.90;;;;;;5092949;28;20044;-52
2022/10/27 03:35:05;;;;;;;;;;;9.50;99.90;;;;;;5092347;28;20040;-53
2022/10/27 03:37:32;;;;;;;11.98;4.35;;;9.50;99.90;;;;;;5092952;28;19920;-52
2022/10/27 03:39:59;;;;;;;14.57;4.57;;;9.50;99.90;;;;;;5091707;28;20115;-51
2022/10/27 03:42:26;;;;;;;6.78;3.80;;;9.50;99.90;;;;;;5092219;28;20097;-52
2022/10/27 03:44:52;;;;;;;6.07;4.00;;;9.50;99.90;;;;;;5091818;28;20408;-50
2022/10/27 03:47:19;;;;;;;10.82;4.28;;;9.50;99.90;;;;;;5084474;28;20044;-52
2022/10/27 03:49:46;;;;;;;10.15;4.45;;;9.50;99.90;;;;;;5073855;28;20573;-50
2022/10/27 03:52:12;;;;;;;9.27;3.53;;;9.50;99.90;;;;;;5092245;28;20400;-50
2022/10/27 03:54:39;;;;;;;7.05;4.28;;;9.50;99.90;;;;;;5092155;28;20157;-50
2022/10/27 03:57:09;;;;;;;12.82;4.25;;;9.50;99.90;;;;;;5089796;28;20066;-51
2022/10/27 03:59:36;;;;;;;7.07;4.15;;;9.50;99.90;;;;;;5092487;28;20056;-50
2022/10/27 04:02:02;;;;;;;9.05;4.20;;;9.50;99.90;;;;;;5091482;28;20455;-50
2022/10/27 04:04:33;;;;;;;6.90;3.78;;;9.50;99.90;;;;;;5091775;28;20055;-51
2022/10/27 04:06:59;;;;;;;15.73;4.85;;;9.40;99.90;;;;;;5073165;28;20572;-52
2022/10/27 04:09:26;;;;;;;11.65;4.57;;;9.30;99.90;;;;;;5092544;28;20196;-50
2022/10/27 04:11:53;;;;;;;7.95;4.70;;;9.30;99.90;;;;;;5087754;28;20123;-50
2022/10/27 04:14:19;;;;;;;13.68;4.68;;;9.30;99.90;;;;;;5091749;28;20036;-52
2022/10/27 04:16:50;;;;;;;9.98;4.60;;;9.20;99.90;;;;;;5086086;28;20470;-55
2022/10/27 04:19:18;;;;;;;13.30;3.70;;;9.30;99.90;;;;;;5090804;28;20052;-53
2022/10/27 04:21:45;;;;;;;7.55;4.05;;;9.30;99.90;;;;;;5090896;28;20075;-50
2022/10/27 04:24:12;;;;;;;;;;;9.30;99.90;;;;;;5091424;28;20508;-51
2022/10/27 04:26:40;;;;;;;5.15;3.35;;;9.30;99.90;;;;;;5061266;28;20019;-50
2022/10/27 04:29:06;;;;;;;12.90;3.95;;;9.30;99.90;;;;;;5072255;28;20064;-51
2022/10/27 04:31:33;;;;;;;8.43;4.00;;;9.30;99.90;;;;;;5078653;28;20492;-51
2022/10/27 04:34:00;;;;;;;7.80;3.88;;;9.30;99.90;;;;;;5078809;28;20070;-51
2022/10/27 04:36:28;;;;;;;11.30;3.83;;;9.30;99.90;;;;;;5076977;28;20340;-51
2022/10/27 04:38:54;;;;;;;10.00;3.97;;;9.20;99.90;;;;;;5082915;28;20075;-52
2022/10/27 04:41:21;;;;;;;10.27;4.18;;;9.20;99.90;;;;;;5079459;28;20484;-51
2022/10/27 04:43:51;;;;;;;7.18;3.42;;;9.20;99.90;;;;;;5081799;28;20071;-51
2022/10/27 04:46:22;;;;;;;7.10;3.83;;;9.20;99.90;;;;;;5080296;28;20564;-53
2022/10/27 04:48:49;;;;;;;7.68;3.58;;;9.20;99.90;;;;;;5082222;28;20545;-51
2022/10/27 04:51:16;;;;;;;9.38;4.32;;;9.20;99.90;;;;;;5084117;28;20113;-51
2022/10/27 04:53:48;;;;;;;6.57;3.78;;;9.20;99.90;;;;;;5076662;28;20051;-52
2022/10/27 04:56:15;;;;;;;15.65;4.68;;;9.20;99.90;;;;;;5081240;28;20101;-51
2022/10/27 04:58:42;;;;;;;11.30;3.92;;;9.20;99.90;;;;;;5079984;28;20115;-50
2022/10/27 05:01:11;;;;;;;9.93;3.50;;;9.10;99.90;;;;;;5084878;28;20043;-50
2022/10/27 05:03:37;;;;;;;6.30;3.40;;;9.10;99.90;;;;;;5080131;28;20056;-51
2022/10/27 05:06:05;;;;;;;11.73;4.00;;;9.10;99.90;;;;;;5078338;28;20044;-52
2022/10/27 05:08:31;;;;;;;;;;;9.10;99.90;;;;;;5085611;28;20408;-51
2022/10/27 05:10:58;;;;;;;6.45;3.50;;;9.10;99.90;;;;;;5078598;28;20353;-50
2022/10/27 05:13:25;;;;;;;10.63;3.63;;;9.10;99.90;;;;;;5080965;28;20112;-51
2022/10/27 05:15:51;;;;;;;8.07;3.63;;;9.10;99.90;;;;;;5088736;28;20059;-51
2022/10/27 05:18:18;;;;;;;8.98;4.20;;;9.10;99.90;;;;;;5090399;28;20067;-51
2022/10/27 05:20:45;;;;;;;8.75;3.95;;;9.00;99.90;;;;;;5089912;28;20574;-52
2022/10/27 05:23:12;;;;;;;9.18;3.70;;;9.00;99.90;;;;;;5074393;28;20071;-50
2022/10/27 05:25:38;;;;;;;8.27;4.03;;;9.00;99.90;;;;;;5090049;28;20073;-53
2022/10/27 05:28:10;;;;;;;11.85;4.25;;;9.00;99.90;;;;;;5078490;28;20048;-50
2022/10/27 05:30:37;;;;;;;8.60;3.50;;;9.00;99.90;;;;;;5071071;28;20497;-53
2022/10/27 05:33:03;;;;;;;10.98;4.65;;;9.00;99.90;;;;;;5078755;28;20071;-53
2022/10/27 05:35:31;;;;;;;7.40;4.03;;;9.00;99.90;;;;;;5090096;28;20043;-52
2022/10/27 05:37:58;;;;;;;13.07;4.43;;;9.00;99.90;;;;;;5087466;28;20040;-50
2022/10/27 05:40:25;;;;;;;9.55;4.03;;;9.00;99.90;;;;;;5072916;28;20043;-51
2022/10/27 05:42:53;;;;;;;9.38;4.22;;;9.00;99.90;;;;;;5084520;28;20044;-54
2022/10/27 05:45:23;;;;;;;9.18;4.75;;;9.10;99.90;;;;;;5087323;28;20400;-51
2022/10/27 05:48:00;;;;;;;13.07;5.15;;;9.10;99.90;;;;;;5070043;28;20068;-53
2022/10/27 05:50:27;;;;;;;10.93;4.87;;;9.10;99.90;;;;;;5080186;28;20044;-50
2022/10/27 05:52:55;;;;;;;10.15;3.78;;;9.10;99.90;;;;;;5089745;28;20105;-52
2022/10/27 05:55:23;;;;;;;7.57;4.65;;;9.10;99.90;;;;;;5083249;28;20062;-50
2022/10/27 05:57:55;;;;;;;10.18;4.35;;;9.10;99.90;;;;;;5090089;28;20450;-52
2022/10/27 06:00:23;;;;;;;7.82;3.78;;;9.10;99.90;;;;;;5091095;28;20090;-50
2022/10/27 06:02:50;;;;;;;10.10;4.05;;;9.20;99.90;;;;;;5084060;28;20102;-50
2022/10/27 06:05:17;;;;;;;10.02;4.20;;;9.10;99.90;;;;;;5090610;28;20044;-50
2022/10/27 06:07:44;;;;;;;8.13;4.25;;;9.10;99.90;;;;;;5087133;28;20521;-51
2022/10/27 06:10:11;;;;;;;10.40;4.47;;;9.10;99.90;;;;;;5089421;28;20086;-50
2022/10/27 06:12:37;;;;;;;6.15;3.20;;;9.20;99.90;;;;;;5091491;28;20665;-50
2022/10/27 06:15:05;;;;;;;12.20;3.90;;;9.20;99.90;;;;;;5090599;28;20063;-51
2022/10/27 06:17:31;;;;;;;;;;;9.20;99.90;;;;;;5094315;28;20048;-51
2022/10/27 06:19:58;;;;;;;10.50;3.58;;;9.20;99.90;;;;;;5093949;28;19919;-52
2022/10/27 06:22:25;;;;;;;10.02;4.25;;;9.20;99.90;;;;;;5093972;28;20064;-53
2022/10/27 06:24:51;;;;;;;11.57;4.47;;;9.20;99.90;;;;;;5098423;22;20071;-49
2022/10/27 06:27:18;;;;;;;11.05;3.92;;;9.20;99.90;;;;;;5042672;28;20513;-48
2022/10/27 06:29:45;;;;;;;7.82;3.80;;;9.20;99.90;;;;;;5048420;28;20053;-47
2022/10/27 06:32:11;;;;;;;8.48;3.92;;;9.20;99.90;;;;;;5034300;28;20041;-46
2022/10/27 06:34:38;;;;;;;12.13;4.63;;;9.30;99.90;;;;;;5033769;28;20037;-46
2022/10/27 06:37:05;;;;;;;7.30;3.78;;;9.30;99.90;;;;;;5033022;28;20409;-46
2022/10/27 06:39:32;;;;;;;6.13;3.50;;;9.20;99.90;;;;;;5045189;28;20076;-47
2022/10/27 06:41:58;;;;;;;12.65;3.58;;;9.20;99.90;;;;;;5053620;28;20124;-46
2022/10/27 06:44:26;;;;;;;;;;;9.30;99.90;;;;;;5033026;28;20564;-47
2022/10/27 06:46:53;;;;;;;11.68;4.43;;;9.20;99.90;;;;;;5047264;28;20352;-47
2022/10/27 06:49:19;;;;;;;8.93;4.30;;;9.20;99.90;;;;;;5053379;28;20134;-47
2022/10/27 06:51:46;;;;;;;13.18;4.03;;;9.20;99.90;;;;;;5053504;28;20079;-50
2022/10/27 06:54:13;;;;;;;7.18;2.75;;;9.20;99.90;;;;;;5047420;28;20451;-47
2022/10/27 06:56:39;;;;;;;13.23;4.20;;;9.20;99.90;;;;;;5053297;28;20041;-48
2022/10/27 06:59:06;;;;;;;13.38;5.22;;;9.40;99.90;;;;;;5052705;28;20045;-49
2022/10/27 07:01:33;;;;;;;6.88;4.45;;;9.20;99.90;;;;;;5047221;28;20071;-49
2022/10/27 07:03:59;;;;;;;11.77;4.00;;;9.20;99.90;;;;;;5052750;28;20047;-47
2022/10/27 07:06:26;;;;;;;11.73;5.10;;;9.30;99.90;;;;;;5047475;28;20049;-46
2022/10/27 07:08:53;;;;;;;12.45;3.85;;;9.20;99.90;;;;;;5053036;28;20506;-47
2022/10/27 07:11:21;;;;;;;9.90;3.83;;;9.30;99.90;;;;;;5052517;28;20037;-47
2022/10/27 07:13:47;;;;;;;9.30;4.38;;;9.30;99.90;;;;;;5052158;28;20049;-47
2022/10/27 07:16:15;;;;;;;7.30;3.63;;;9.30;99.90;;;;;;5052597;28;20068;-47
2022/10/27 07:18:42;;;;;;;;;;;9.40;99.90;;;;;;5053289;28;20075;-48
2022/10/27 07:21:08;;;;;;;8.85;4.20;;;9.50;99.90;;;;;;5047190;28;20003;-48
2022/10/27 07:23:35;;;;;;;7.55;3.97;;;9.70;99.90;;;;;;5052081;28;20068;-49
2022/10/27 07:26:03;;;;;;;13.57;4.13;;;9.80;99.90;;;;;;5051880;28;20072;-48
2022/10/27 07:28:29;;;;;;;;;;;10.00;99.90;;;;;;5053343;28;20111;-47
2022/10/27 07:30:56;;;;;;;8.82;3.67;;;10.10;99.90;;;;;;5046725;28;20462;-46
2022/10/27 07:33:23;;;;;;;8.73;3.63;;;10.20;99.90;;;;;;5052346;28;20045;-48
2022/10/27 07:35:51;;;;;;;9.68;3.15;;;10.20;99.90;;;;;;5052196;28;20056;-48
2022/10/27 07:38:18;;;;;;;5.30;3.60;;;10.40;99.90;;;;;;5051363;28;20049;-48
2022/10/27 07:40:45;;;;;;;8.27;3.67;;;10.40;99.90;;;;;;5046149;28;20068;-48
2022/10/27 07:43:12;;;;;;;4.97;3.08;;;10.50;99.90;;;;;;5052184;28;20067;-48
2022/10/27 07:45:41;;;;;;;7.15;3.10;;;10.50;99.90;;;;;;5038149;28;20061;-48
2022/10/27 07:48:15;;;;;;;6.75;2.53;;;10.60;99.90;;;;;;5051515;28;20390;-50
2022/10/27 07:50:43;;;;;;;8.20;3.42;;;10.70;99.90;;;;;;5051613;28;20106;-50
2022/10/27 07:53:10;;;;;;;7.78;3.22;;;10.80;99.90;;;;;;5044740;28;20049;-48
2022/10/27 07:55:37;;;;;;;8.57;2.95;;;10.80;99.90;;;;;;5051892;28;20110;-48
2022/10/27 07:58:15;;;;;;;5.75;3.00;;;11.00;99.90;;;;;;5052021;28;20526;-48
2022/10/27 08:00:45;;;;;;;;;;;11.00;99.90;;;;;;5042804;28;20049;-47
2022/10/27 08:03:18;;;;;;;10.52;3.35;;;11.10;99.90;;;;;;5049149;28;19920;-46
2022/10/27 08:05:45;;;;;;;9.15;2.92;;;11.10;99.90;;;;;;5051385;28;20036;-46
2022/10/27 08:08:13;;;;;;;6.65;2.97;;;11.10;99.90;;;;;;5050695;28;20076;-48
2022/10/27 08:10:41;;;;;;;8.27;3.28;;;11.20;99.90;;;;;;5043612;28;20110;-48
2022/10/27 08:13:09;;;;;;;6.78;2.78;;;11.30;99.90;;;;;;5051557;28;20490;-46
2022/10/27 08:15:37;;;;;;;6.43;2.78;;;11.40;99.90;;;;;;5050357;28;20567;-47
2022/10/27 08:18:04;;;;;;;4.20;2.58;;;11.50;99.90;;;;;;5051846;28;20049;-48
2022/10/27 08:20:32;;;;;;;;;;;11.70;99.90;;;;;;5049705;28;20045;-46
2022/10/27 08:23:04;;;;;;;4.72;2.70;;;11.70;99.90;;;;;;5047482;28;19951;-48
2022/10/27 08:25:31;;;;;;;6.30;3.03;;;11.80;99.90;;;;;;5050801;28;20386;-46
2022/10/27 08:27:58;;;;;;;6.85;2.53;;;11.90;99.90;;;;;;5050799;28;20080;-48
2022/10/27 08:30:28;;;;;;;7.25;2.65;;;11.90;99.90;;;;;;5050835;28;20053;-47
2022/10/27 08:33:01;;;;;;;7.28;2.58;;;12.10;99.90;;;;;;5051763;28;20482;-46
2022/10/27 08:35:30;;;;;;;5.85;2.20;;;12.20;99.90;;;;;;5050711;28;20049;-48
2022/10/27 08:38:06;;;;;;;9.32;2.80;;;12.20;99.90;;;;;;5041883;28;20044;-48
2022/10/27 08:40:53;;;;;;;4.80;2.33;;;12.30;99.90;;;;;;5051464;28;20041;-48
2022/10/27 08:43:44;;;;;;;5.40;2.40;;;12.40;99.90;;;;;;5050846;28;20041;-48
2022/10/27 08:46:37;;;;;;;7.25;2.58;;;12.60;99.90;;;;;;5044106;28;20100;-46
2022/10/27 08:49:08;;;;;;;3.53;2.20;;;12.80;99.90;;;;;;5051299;28;20122;-46
2022/10/27 08:51:36;;;;;;;6.93;2.15;;;12.90;99.90;;;;;;5051578;28;20477;-50
2022/10/27 08:54:04;;;;;;;6.70;2.30;;;13.20;99.90;;;;;;5045267;28;20064;-46
2022/10/27 08:56:38;;;;;;;6.80;1.83;;;13.40;99.90;;;;;;5051160;28;20072;-46
2022/10/27 08:59:05;;;;;;;5.78;2.20;;;13.50;99.90;;;;;;5051478;28;20423;-48
2022/10/27 09:01:45;;;;;;;8.07;1.80;;;13.60;99.90;;;;;;5049152;28;20529;-49
2022/10/27 09:04:30;;;;;;;4.97;1.80;;;13.60;99.90;;;;;;5050697;28;20045;-48
2022/10/27 09:07:18;;;;;;;5.13;1.83;;;13.70;99.90;;;;;;5045195;28;20541;-49
2022/10/27 09:09:51;;;;;;;;;;;13.90;99.90;;;;;;5051435;28;20045;-51
2022/10/27 09:12:29;;;;;;;5.05;2.25;;;14.00;99.90;;;;;;5049811;28;20274;-48
2022/10/27 09:15:18;;;;;;;6.60;2.53;;;14.00;99.90;;;;;;5045924;28;20045;-45
2022/10/27 09:17:51;;;;;;;5.72;1.77;;;14.00;99.90;;;;;;5044647;28;20045;-48
2022/10/27 09:20:37;;;;;;;4.10;1.98;;;14.20;99.90;;;;;;5050616;28;20485;-49
2022/10/27 09:23:09;;;;;;;6.00;2.10;;;14.30;99.90;;;;;;5047176;28;20077;-48
2022/10/27 09:25:38;;;;;;;3.53;1.92;;;14.40;99.90;;;;;;5050297;28;20112;-48
2022/10/27 09:28:10;;;;;;;6.30;1.55;;;14.50;99.90;;;;;;5050919;28;20041;-47
2022/10/27 09:30:39;;;;;;;4.10;1.95;;;14.50;99.90;;;;;;5044133;28;20083;-48
2022/10/27 09:33:13;;;;;;;4.55;1.83;;;14.50;99.90;;;;;;5050892;28;20118;-48
2022/10/27 09:35:40;;;;;;;6.03;1.75;;;14.50;99.90;;;;;;5050153;28;20087;-50
2022/10/27 09:38:21;;;;;;;9.35;2.30;;;14.60;99.90;;;;;;5048927;28;20072;-49
2022/10/27 09:40:48;;;;;;;3.15;1.70;;;14.70;99.90;;;;;;5050825;28;20087;-48
2022/10/27 09:43:15;;;;;;;5.32;1.90;;;14.70;99.90;;;;;;5050058;28;20465;-49
2022/10/27 09:45:43;;;;;;;5.43;1.70;;;14.70;99.90;;;;;;5045034;28;20111;-48
2022/10/27 09:48:18;;;;;;;7.07;1.58;;;14.80;99.90;;;;;;5053802;28;20049;-48
2022/10/27 09:50:51;;;;;;;5.55;1.90;;;14.90;99.90;;;;;;5053435;28;20114;-48
2022/10/27 09:53:46;;;;;;;4.13;1.88;;;14.90;99.90;;;;;;5047490;28;20081;-48
2022/10/27 09:56:24;;;;;;;5.88;1.70;;;15.00;99.90;;;;;;5052205;28;20055;-48
2022/10/27 09:58:56;;;;;;;6.80;1.77;;;15.10;99.90;;;;;;5053761;28;20045;-49
2022/10/27 10:01:25;;;;;;;5.45;2.28;;;15.20;99.90;;;;;;5054399;28;20122;-49
2022/10/27 10:04:03;;;;;;;7.03;2.00;;;15.30;99.90;;;;;;5050258;28;20580;-48
2022/10/27 10:06:36;;;;;;;5.07;2.33;;;15.40;99.90;;;;;;5034047;28;20045;-48
2022/10/27 10:09:24;;;;;;;10.95;2.58;;;15.50;99.90;;;;;;5050093;28;20170;-49
2022/10/27 10:12:09;;;;;;;7.38;2.00;;;15.50;99.90;;;;;;5034128;28;20077;-48
2022/10/27 10:14:36;;;;;;;5.63;1.80;;;15.60;99.90;;;;;;5036598;28;20079;-50
2022/10/27 10:17:02;;;;;;;2.75;1.50;;;15.80;99.90;;;;;;5043324;28;20453;-48
2022/10/27 10:19:29;;;;;;;8.65;1.92;;;15.80;99.90;;;;;;5053358;28;20076;-48
2022/10/27 10:21:59;;;;;;;5.57;1.90;;;15.90;99.90;;;;;;5053665;28;20071;-50
2022/10/27 10:24:28;;;;;;;8.20;1.50;;;16.00;99.90;;;;;;5049907;28;20130;-48
2022/10/27 10:26:58;;;;;;;3.33;1.60;;;15.80;99.90;;;;;;5054026;28;20069;-48
2022/10/27 10:29:46;;;;;;;6.00;1.60;;;15.80;99.90;;;;;;5052892;28;20086;-48
2022/10/27 10:32:24;;;;;;;5.60;1.23;;;15.80;99.90;;;;;;5047768;28;20053;-48
2022/10/27 10:34:55;;;;;;;7.93;1.30;;;15.90;99.90;;;;;;5053058;28;20327;-49
2022/10/27 10:37:28;;;;;;;6.35;1.60;;;15.90;99.90;;;;;;5053311;28;20045;-48
2022/10/27 10:40:25;;;;;;;4.45;1.67;;;16.00;99.90;;;;;;5047351;28;20047;-48
2022/10/27 10:43:13;;;;;;;7.22;1.50;;;16.10;99.90;;;;;;5048478;28;20495;-45
2022/10/27 10:45:41;;;;;;;3.25;1.45;;;16.20;99.90;;;;;;5048181;28;20037;-49
2022/10/27 10:48:14;;;;;;;2.10;1.35;;;16.20;99.90;;;;;;5053467;28;20053;-52
2022/10/27 10:50:45;;;;;;;5.35;1.92;;;16.30;99.90;;;;;;5053276;28;20517;-48
2022/10/27 10:53:31;;;;;;;2.55;1.55;;;16.40;99.90;;;;;;5047743;28;20080;-48
2022/10/27 10:56:03;;;;;;;9.07;2.30;;;16.50;99.90;;;;;;5053052;28;20044;-48
2022/10/27 10:58:32;;;;;;;7.00;1.58;;;16.60;99.90;;;;;;5053276;28;20073;-46
2022/10/27 11:01:05;;;;;;;8.93;1.75;;;16.60;99.90;;;;;;5053284;28;20049;-45
2022/10/27 11:03:35;;;;;;;4.80;2.05;;;16.70;99.90;;;;;;5045164;28;20103;-48
2022/10/27 11:06:04;;;;;;;3.30;1.30;;;16.80;99.90;;;;;;5047747;28;20067;-52
2022/10/27 11:08:37;;;;;;;5.53;2.08;;;16.80;99.90;;;;;;5044898;28;20052;-48
2022/10/27 11:11:31;;;;;;;3.63;1.55;;;16.90;99.90;;;;;;5052859;28;20056;-45
2022/10/27 11:14:03;;;;;;;3.72;1.50;;;16.90;99.90;;;;;;5047728;28;20037;-46
2022/10/27 11:16:31;;;;;;;2.40;1.52;;;17.00;99.90;;;;;;5052622;28;20075;-46
2022/10/27 11:19:14;;;;;;;4.90;1.67;;;17.20;99.90;;;;;;5034096;28;20533;-46
2022/10/27 11:22:00;;;;;;;3.40;1.60;;;17.20;99.90;;;;;;5046304;28;20065;-45
2022/10/27 11:24:39;;;;;;;3.45;1.45;;;17.30;99.90;;;;;;5051802;28;20049;-46
2022/10/27 11:27:20;;;;;;;4.93;1.80;;;17.20;99.90;;;;;;5051887;28;20045;-46
2022/10/27 11:29:58;;;;;;;3.20;1.67;;;17.30;99.90;;;;;;5045233;28;20072;-48
2022/10/27 11:32:57;;;;;;;4.20;1.45;;;17.30;99.90;;;;;;5052651;28;20049;-46
2022/10/27 11:35:36;;;;;;;5.00;1.48;;;17.40;99.90;;;;;;5021546;28;20061;-46
2022/10/27 11:38:26;;;;;;;4.00;1.40;;;17.40;99.90;;;;;;5052684;28;20099;-46
2022/10/27 11:41:07;;;;;;;4.93;1.58;;;17.50;99.90;;;;;;5047397;28;20037;-46
2022/10/27 11:43:39;;;;;;;4.50;1.83;;;17.60;99.90;;;;;;5043588;28;20489;-47
2022/10/27 11:46:51;;;;;;;6.07;1.58;;;17.60;99.90;;;;;;5051916;28;20086;-46
2022/10/27 11:49:26;;;;;;;5.65;1.80;;;17.60;99.90;;;;;;5050829;28;20460;-46
2022/10/27 11:52:15;;;;;;;5.80;1.77;;;17.60;99.90;;;;;;5047145;28;20418;-46
2022/10/27 11:54:42;;;;;;;5.53;1.83;;;17.60;99.90;;;;;;5031306;28;20099;-48
2022/10/27 11:57:15;;;;;;;;;;;17.70;99.90;;;;;;5037343;28;20045;-49
2022/10/27 12:00:22;;;;;;;6.03;1.60;;;17.80;99.90;;;;;;5047946;28;19955;-50
2022/10/27 12:03:04;;;;;;;6.50;1.33;;;17.90;99.90;;;;;;5044325;28;20033;-46
2022/10/27 12:05:47;;;;;;;6.78;2.15;;;18.00;99.90;;;;;;5043389;28;20041;-48
2022/10/27 12:08:20;;;;;;;7.30;1.60;;;18.00;99.90;;;;;;5051894;28;20124;-46
2022/10/27 12:11:29;;;;;;;13.52;6.45;;;18.10;99.90;;;;;;5047144;28;20235;-46
2022/10/27 12:14:12;;;;;;;8.68;1.70;;;18.10;99.90;;;;;;4965889;28;20070;-46
2022/10/27 12:16:50;;;;;;;4.18;1.50;;;18.00;99.90;;;;;;5043411;28;20114;-46
2022/10/27 12:19:24;;;;;;;5.03;1.90;;;18.10;99.90;;;;;;5051843;28;20493;-49
2022/10/27 12:21:59;;;;;;;5.50;1.35;;;18.20;99.90;;;;;;5051735;28;20087;-47
2022/10/27 12:27:47;;;;;;;3.40;1.65;;;18.00;99.90;;;;;;4989871;28;20104;-54
2022/10/27 12:30:22;;;;;;;4.57;1.55;;;17.60;99.90;;;;;;4990148;28;20047;-48
2022/10/27 12:32:52;;;;;;;3.05;1.55;;;17.40;99.90;;;;;;4990982;28;20108;-48
2022/10/27 12:35:30;;;;;;;7.35;1.63;;;17.20;99.90;;;;;;4985767;28;20797;-48
2022/10/27 12:38:38;;;;;;;5.95;1.67;;;17.10;99.90;;;;;;4991037;28;20078;-48
2022/10/27 12:41:15;;;;;;;3.33;1.55;;;17.10;99.90;;;;;;4985755;28;20093;-49
2022/10/27 12:44:13;;;;;;;4.75;1.48;;;17.30;99.90;;;;;;4991803;28;20046;-48
2022/10/27 12:46:59;;;;;;;6.57;1.58;;;17.40;99.90;;;;;;4988686;28;20580;-48
2022/10/27 12:49:51;;;;;;;2.97;1.60;;;17.70;99.90;;;;;;4991980;28;20515;-49
2022/10/27 12:52:22;;;;;;;6.60;1.90;;;17.80;99.90;;;;;;4989685;28;20511;-48
2022/10/27 12:55:27;;;;;;;3.97;1.45;;;18.00;99.90;;;;;;4990562;28;20046;-48
2022/10/27 12:58:04;;;;;;;6.18;1.60;;;18.20;99.90;;;;;;4979461;28;20124;-48
2022/10/27 13:00:54;;;;;;;5.93;1.77;;;18.40;99.90;;;;;;4991581;28;20521;-49
2022/10/27 13:03:45;;;;;;;8.45;1.42;;;18.40;99.90;;;;;;4990454;28;20039;-48
2022/10/27 13:06:18;;;;;;;4.82;1.73;;;18.40;99.90;;;;;;4991634;28;20436;-48
2022/10/27 13:08:54;;;;;;;6.43;1.55;;;18.40;99.90;;;;;;4991580;28;20084;-49
2022/10/27 13:11:51;;;;;;;7.72;2.63;;;18.40;99.90;;;;;;4990639;28;20074;-48
2022/10/27 13:14:18;;;;;;;7.65;1.75;;;18.50;99.90;;;;;;4990959;28;20081;-48
2022/10/27 13:17:01;;;;;;;4.63;1.35;;;18.70;99.90;;;;;;4991114;28;20074;-50
2022/10/27 13:19:42;;;;;;;3.55;1.58;;;18.70;99.90;;;;;;4992132;28;20046;-50
2022/10/27 13:22:20;;;;;;;5.13;1.70;;;18.90;99.90;;;;;;4994031;28;20050;-48
2022/10/27 13:25:12;;;;;;;9.50;1.65;;;18.90;99.90;;;;;;4995305;28;20117;-48